Time;durP1;ratioP1;P1;durP2;ratioP2;P2;SDS_P1;SDS_P2;PMS_P1;PMS_P2;Temp;Humidity;BMP_temperature;BMP_pressure;BME280_temperature;BME280_humidity;BME280_pressure;Samples;Min_cycle;Max_cycle;Signal;HPM_P1;HPM_P2
2023/11/30 00:03:07;;;;;;;17.23;7.38;;;;;;;4.27;72.58;99098.22;10329089;28;20038;-60
2023/11/30 00:08:09;;;;;;;18.33;8.52;;;;;;;4.22;73.27;99105.84;10325271;28;20050;-60
2023/11/30 00:13:10;;;;;;;16.27;7.43;;;;;;;4.30;72.93;99094.38;10318065;28;20069;-60
2023/11/30 00:18:12;;;;;;;17.73;7.53;;;;;;;4.37;73.37;99100.72;10320856;28;20042;-61
2023/11/30 00:23:13;;;;;;;17.30;7.53;;;;;;;4.47;72.57;99096.03;10314608;28;20050;-60
2023/11/30 00:28:15;;;;;;;17.05;8.50;;;;;;;4.60;72.68;99090.22;10320572;28;20138;-60
2023/11/30 00:33:16;;;;;;;19.63;8.25;;;;;;;4.72;72.58;99083.53;10317835;28;20053;-59
2023/11/30 00:38:17;;;;;;;21.63;9.93;;;;;;;4.86;72.55;99084.66;10313110;28;20050;-60
2023/11/30 00:43:19;;;;;;;23.00;9.32;;;;;;;4.93;72.68;99090.13;10322788;28;20101;-60
2023/11/30 00:48:21;;;;;;;17.33;8.57;;;;;;;4.94;72.07;99089.97;10320248;28;20540;-60
2023/11/30 00:53:22;;;;;;;18.52;9.30;;;;;;;4.96;72.02;99079.97;10326656;28;20125;-60
2023/11/30 00:58:23;;;;;;;17.60;7.65;;;;;;;5.05;72.22;99082.59;10319696;28;20058;-60
2023/11/30 01:03:25;;;;;;;17.58;8.68;;;;;;;5.03;72.46;99082.78;10320451;28;20129;-60
2023/11/30 01:08:26;;;;;;;18.58;8.57;;;;;;;4.99;72.34;99075.31;10321599;28;20049;-59
2023/11/30 01:13:28;;;;;;;20.08;9.48;;;;;;;5.06;72.87;99084.28;10327343;28;20046;-60
2023/11/30 01:18:29;;;;;;;19.42;8.77;;;;;;;5.02;72.93;99085.63;10327316;28;20057;-60
2023/11/30 01:23:31;;;;;;;19.70;9.15;;;;;;;5.07;72.01;99088.59;10321169;28;20397;-59
2023/11/30 01:28:32;;;;;;;19.17;8.60;;;;;;;5.13;72.79;99072.78;10333139;28;20409;-60
2023/11/30 01:33:36;;;;;;;21.13;9.73;;;;;;;5.18;72.75;99084.75;10328234;28;20046;-59
2023/11/30 01:38:37;;;;;;;18.67;9.82;;;;;;;5.25;71.70;99083.88;10329813;28;20071;-60
2023/11/30 01:43:39;;;;;;;21.63;8.93;;;;;;;5.25;72.29;99075.88;10317817;28;20725;-61
2023/11/30 01:48:41;;;;;;;19.60;8.82;;;;;;;5.31;72.54;99074.34;10325007;28;20412;-60
2023/11/30 01:53:43;;;;;;;18.30;8.70;;;;;;;5.34;72.51;99064.16;10325810;28;20038;-59
2023/11/30 01:58:45;;;;;;;20.20;9.55;;;;;;;5.39;71.96;99041.50;10323947;28;20054;-59
2023/11/30 02:03:46;;;;;;;19.23;9.30;;;;;;;5.40;71.41;99029.84;10330939;28;20050;-62
2023/11/30 02:08:48;;;;;;;16.48;8.20;;;;;;;5.41;72.12;99037.66;10320250;28;20078;-62
2023/11/30 02:13:50;;;;;;;17.67;9.02;;;;;;;5.39;71.80;99036.16;10328547;28;20054;-63
2023/11/30 02:18:51;;;;;;;18.20;8.88;;;;;;;5.39;72.01;99031.69;10335118;28;20041;-62
2023/11/30 02:23:53;;;;;;;21.45;8.88;;;;;;;5.43;72.08;99024.16;10325279;28;20050;-63
2023/11/30 02:28:54;;;;;;;16.83;8.57;;;;;;;5.39;71.62;99014.84;10324482;28;20080;-61
2023/11/30 02:33:55;;;;;;;15.95;8.45;;;;;;;5.35;72.05;98988.56;10332148;28;20045;-62
2023/11/30 02:38:57;;;;;;;18.85;9.55;;;;;;;5.32;72.13;98972.91;10332780;28;20042;-62
2023/11/30 02:43:59;;;;;;;17.38;8.38;;;;;;;5.30;71.86;98976.78;10326360;28;20054;-62
2023/11/30 02:49:00;;;;;;;20.83;8.40;;;;;;;5.32;71.30;98970.25;10303408;28;20166;-62
2023/11/30 02:54:02;;;;;;;18.30;8.90;;;;;;;5.22;72.46;98996.31;10342526;28;20049;-61
2023/11/30 02:59:03;;;;;;;18.35;8.38;;;;;;;5.11;72.19;98983.38;10328851;28;20351;-61
2023/11/30 03:04:04;;;;;;;18.10;8.77;;;;;;;5.18;72.02;98980.84;10328063;28;20038;-61
2023/11/30 03:09:07;;;;;;;17.30;8.45;;;;;;;5.22;71.67;98977.66;10331520;28;20052;-62
2023/11/30 03:14:09;;;;;;;19.38;9.10;;;;;;;5.19;71.51;98972.66;10323342;28;20166;-60
2023/11/30 03:19:10;;;;;;;19.30;8.35;;;;;;;5.21;71.65;98969.81;10315130;28;20068;-60
2023/11/30 03:24:19;;;;;;;18.48;8.52;;;;;;;5.19;71.89;98972.66;10324860;28;20054;-60
2023/11/30 03:29:20;;;;;;;18.60;9.15;;;;;;;5.23;71.83;98971.31;10329022;28;20061;-59
2023/11/30 03:34:22;;;;;;;22.67;10.98;;;;;;;4.99;72.73;98969.59;10314222;28;20421;-60
2023/11/30 03:39:23;;;;;;;18.23;9.07;;;;;;;4.93;72.82;98965.00;10319901;28;20053;-60
2023/11/30 03:44:25;;;;;;;16.55;7.90;;;;;;;4.90;72.58;98973.34;10322162;28;20485;-59
2023/11/30 03:49:26;;;;;;;18.60;8.15;;;;;;;4.75;72.18;98966.06;10324712;28;20514;-59
2023/11/30 03:54:27;;;;;;;15.07;7.32;;;;;;;4.93;71.95;98962.31;10317605;28;20059;-59
2023/11/30 03:59:29;;;;;;;21.70;8.40;;;;;;;5.05;71.57;98960.91;10320621;28;20042;-59
2023/11/30 04:04:30;;;;;;;17.63;7.90;;;;;;;4.95;72.46;98962.97;10324534;28;20130;-60
2023/11/30 04:09:32;;;;;;;19.98;8.95;;;;;;;4.80;72.20;98965.56;10321077;28;20456;-59
2023/11/30 04:14:34;;;;;;;21.55;9.60;;;;;;;4.75;72.37;98959.91;10320374;28;20105;-59
2023/11/30 04:19:35;;;;;;;18.98;7.80;;;;;;;4.67;72.64;98965.28;10318515;28;20049;-59
2023/11/30 04:24:36;;;;;;;18.83;8.30;;;;;;;4.78;72.14;98948.94;10309783;28;20046;-59
2023/11/30 04:29:38;;;;;;;19.27;8.25;;;;;;;4.89;71.41;98945.03;10331936;28;20082;-59
2023/11/30 04:34:39;;;;;;;18.55;8.50;;;;;;;4.79;71.79;98949.75;10316490;28;20049;-60
2023/11/30 04:39:41;;;;;;;22.85;9.15;;;;;;;4.56;72.94;98951.34;10327055;28;20042;-59
2023/11/30 04:44:42;;;;;;;20.30;8.75;;;;;;;4.44;73.02;98943.88;10325879;28;20046;-60
2023/11/30 04:49:43;;;;;;;19.35;8.88;;;;;;;4.29;73.36;98936.63;10329150;28;20046;-59
2023/11/30 04:54:45;;;;;;;23.00;9.10;;;;;;;4.48;73.20;98940.75;10321128;28;20038;-59
2023/11/30 04:59:46;;;;;;;25.02;8.73;;;;;;;4.48;73.26;98938.06;10325690;28;20049;-59
2023/11/30 05:04:47;;;;;;;30.27;9.30;;;;;;;4.55;72.84;98941.69;10315759;28;20614;-59
2023/11/30 05:09:49;;;;;;;23.42;8.77;;;;;;;4.53;72.47;98933.03;10329494;28;20046;-59
2023/11/30 05:14:50;;;;;;;30.35;10.30;;;;;;;4.54;72.79;98920.56;10318881;28;20049;-59
2023/11/30 05:19:52;;;;;;;34.53;11.50;;;;;;;4.63;72.67;98911.56;10322300;28;20042;-59
2023/11/30 05:24:53;;;;;;;25.95;10.20;;;;;;;4.59;72.80;98907.59;10323467;28;20492;-59
2023/11/30 05:29:55;;;;;;;33.42;11.90;;;;;;;4.59;73.15;98922.72;10314658;28;20442;-59
2023/11/30 05:34:56;;;;;;;30.55;10.73;;;;;;;4.66;72.50;98921.88;10320015;28;20493;-59
2023/11/30 05:39:58;;;;;;;28.83;10.90;;;;;;;4.72;72.22;98921.16;10325062;28;20038;-59
2023/11/30 05:45:00;;;;;;;30.45;10.68;;;;;;;4.73;72.10;98930.81;10329921;28;20092;-59
2023/11/30 05:50:01;;;;;;;32.75;11.07;;;;;;;4.73;72.57;98933.47;10326204;28;20105;-59
2023/11/30 05:55:04;;;;;;;33.60;12.13;;;;;;;4.73;72.75;98919.31;10322188;28;20045;-59
2023/11/30 06:00:06;;;;;;;28.77;10.10;;;;;;;4.76;72.64;98919.00;10330118;28;20408;-59
2023/11/30 06:05:08;;;;;;;27.50;10.32;;;;;;;4.80;72.45;98911.47;10335916;28;20065;-59
2023/11/30 06:10:10;;;;;;;23.30;10.43;;;;;;;4.82;72.43;98917.44;10325129;28;20049;-60
2023/11/30 06:15:12;;;;;;;24.27;10.77;;;;;;;4.82;72.59;98901.47;10337796;28;20050;-59
2023/11/30 06:20:13;;;;;;;31.00;14.05;;;;;;;4.85;72.70;98901.13;10333885;28;20061;-59
2023/11/30 06:25:15;;;;;;;23.95;12.15;;;;;;;4.86;72.71;98894.78;10331053;28;20049;-59
2023/11/30 06:30:16;;;;;;;27.08;10.18;;;;;;;4.84;72.58;98894.13;10324986;28;20445;-59
2023/11/30 06:35:18;;;;;;;29.80;10.52;;;;;;;4.80;72.68;98885.69;10325711;28;20533;-59
2023/11/30 06:40:19;;;;;;;22.88;11.23;;;;;;;4.81;72.95;98889.19;10332684;28;20053;-59
2023/11/30 06:45:21;;;;;;;29.38;9.75;;;;;;;4.76;72.74;98890.53;10336699;28;20051;-59
2023/11/30 06:50:22;;;;;;;24.55;9.43;;;;;;;4.69;73.05;98889.56;10320259;28;20208;-74
2023/11/30 06:55:23;;;;;;;21.75;9.73;;;;;;;4.67;72.47;98874.78;10323741;28;20128;-70
2023/11/30 07:00:26;;;;;;;21.92;8.98;;;;;;;4.69;72.62;98883.41;10324866;28;20471;-61
2023/11/30 07:05:28;;;;;;;20.25;9.63;;;;;;;4.73;72.47;98885.53;10349536;28;20066;-61
2023/11/30 07:10:29;;;;;;;20.33;9.50;;;;;;;4.72;72.50;98894.56;10347271;28;20053;-62
2023/11/30 07:15:31;;;;;;;26.88;10.25;;;;;;;4.68;72.48;98887.91;10340512;28;20052;-62
2023/11/30 07:20:32;;;;;;;19.98;9.38;;;;;;;4.69;72.91;98883.41;10352291;28;20046;-62
2023/11/30 07:25:33;;;;;;;22.63;10.70;;;;;;;4.68;72.65;98895.06;10344146;28;20045;-62
2023/11/30 07:30:40;;;;;;;23.73;10.25;;;;;;;4.60;73.38;98903.09;10346483;28;20052;-63
2023/11/30 07:35:42;;;;;;;26.23;10.33;;;;;;;4.53;73.11;98887.81;10339397;28;20065;-61
2023/11/30 07:40:44;;;;;;;27.90;11.88;;;;;;;4.68;73.13;98882.59;10347783;28;20294;-61
2023/11/30 07:45:45;;;;;;;28.27;11.77;;;;;;;4.81;72.95;98883.84;10343114;28;20054;-62
2023/11/30 07:50:47;;;;;;;22.45;10.07;;;;;;;4.86;72.54;98881.47;10342378;28;20047;-61
2023/11/30 07:55:49;;;;;;;24.77;9.88;;;;;;;4.95;72.53;98883.09;10349688;28;20050;-62
2023/11/30 08:00:51;;;;;;;25.85;10.27;;;;;;;5.02;72.28;98878.72;10347473;28;20081;-62
2023/11/30 08:05:53;;;;;;;26.45;10.82;;;;;;;5.11;72.19;98874.16;10342540;28;20683;-62
2023/11/30 08:10:55;;;;;;;22.27;10.07;;;;;;;5.22;71.90;98875.59;10352887;28;20047;-61
2023/11/30 08:15:58;;;;;;;24.20;10.35;;;;;;;5.18;72.41;98883.13;10341433;28;20061;-61
2023/11/30 08:21:02;;;;;;;21.40;9.85;;;;;;;5.16;72.05;98877.13;10347814;28;20104;-61
2023/11/30 08:26:04;;;;;;;23.20;11.93;;;;;;;5.18;72.86;98888.44;10353071;28;20045;-60
2023/11/30 08:31:05;;;;;;;23.58;9.45;;;;;;;5.28;72.32;98891.69;10350380;28;20114;-60
2023/11/30 08:36:07;;;;;;;22.42;10.45;;;;;;;5.33;72.50;98884.00;10341342;28;20112;-60
2023/11/30 08:41:09;;;;;;;23.58;10.45;;;;;;;5.34;72.75;98884.84;10348172;28;20592;-61
2023/11/30 08:46:12;;;;;;;20.85;9.32;;;;;;;5.42;72.10;98881.28;10346505;28;20146;-63
2023/11/30 08:51:13;;;;;;;20.20;8.85;;;;;;;5.43;72.85;98882.91;10347187;28;20568;-62
2023/11/30 08:56:15;;;;;;;23.20;9.60;;;;;;;5.57;72.57;98882.97;10355520;28;20046;-62
2023/11/30 09:01:17;;;;;;;21.60;9.63;;;;;;;5.66;72.49;98878.38;10363115;28;20129;-62
2023/11/30 09:06:19;;;;;;;24.80;10.40;;;;;;;5.70;72.25;98866.34;10355209;28;20113;-62
2023/11/30 09:11:20;;;;;;;23.67;9.77;;;;;;;5.74;72.69;98875.63;10361394;28;20030;-60
2023/11/30 09:16:22;;;;;;;19.58;9.25;;;;;;;5.81;71.81;98880.25;10360528;28;20118;-63
2023/11/30 09:21:23;;;;;;;19.10;9.23;;;;;;;5.83;71.97;98865.72;10366391;28;20101;-62
2023/11/30 09:26:27;;;;;;;22.85;9.98;;;;;;;5.95;72.39;98866.97;10359148;28;20158;-61
2023/11/30 09:31:30;;;;;;;19.92;8.70;;;;;;;6.06;71.93;98865.69;10362916;28;20110;-63
2023/11/30 09:36:31;;;;;;;19.02;9.15;;;;;;;6.17;71.54;98855.56;10373172;28;20116;-62
2023/11/30 09:41:34;;;;;;;18.98;8.52;;;;;;;6.15;71.93;98853.09;10360490;28;20755;-63
2023/11/30 09:46:36;;;;;;;19.92;9.10;;;;;;;6.34;71.37;98841.84;10372558;28;20049;-61
2023/11/30 09:51:40;;;;;;;17.70;8.43;;;;;;;6.40;71.65;98845.63;10363157;28;20425;-63
2023/11/30 09:56:42;;;;;;;22.40;10.05;;;;;;;6.69;71.02;98838.53;10356327;28;20046;-63
2023/11/30 10:01:43;;;;;;;21.33;8.85;;;;;;;6.91;70.36;98829.56;10359630;28;20061;-62
2023/11/30 10:06:48;;;;;;;21.45;9.45;;;;;;;6.91;70.45;98829.56;10354022;28;20057;-63
2023/11/30 10:11:50;;;;;;;19.25;8.85;;;;;;;6.90;70.70;98827.88;10357719;28;20058;-64
2023/11/30 10:16:52;;;;;;;15.23;8.07;;;;;;;7.10;70.17;98824.59;10377071;28;20123;-64
2023/11/30 10:21:57;;;;;;;14.63;7.97;;;;;;;7.28;70.08;98822.28;10369795;28;20034;-64
2023/11/30 10:27:03;;;;;;;17.02;8.30;;;;;;;7.12;70.07;98825.22;10372110;28;20115;-64
2023/11/30 10:32:06;;;;;;;16.50;8.80;;;;;;;7.14;70.44;98812.50;10379808;28;20055;-64
2023/11/30 10:37:09;;;;;;;24.30;11.23;;;;;;;7.52;69.37;98806.84;10382074;28;20073;-64
2023/11/30 10:42:16;;;;;;;15.65;8.82;;;;;;;7.79;68.84;98797.16;10380169;28;20106;-66
2023/11/30 10:47:19;;;;;;;19.98;8.98;;;;;;;8.04;68.24;98792.16;10377565;28;20041;-65
2023/11/30 10:52:20;;;;;;;13.93;7.38;;;;;;;8.19;68.59;98792.00;10379601;28;20034;-65
2023/11/30 10:57:22;;;;;;;17.75;9.38;;;;;;;8.08;68.49;98781.88;10383122;28;20049;-65
2023/11/30 11:02:37;;;;;;;20.30;9.85;;;;;;;8.12;68.53;98775.94;10365829;28;20030;-64
2023/11/30 11:07:50;;;;;;;18.05;8.45;;;;;;;8.29;68.24;98767.53;10373942;28;20042;-65
2023/11/30 11:12:51;;;;;;;15.15;8.32;;;;;;;8.39;68.05;98769.84;10379045;28;20030;-65
2023/11/30 11:18:00;;;;;;;15.75;8.13;;;;;;;8.22;68.62;98782.78;10384559;28;20093;-64
2023/11/30 11:23:04;;;;;;;13.90;8.52;;;;;;;8.30;68.07;98780.72;10371524;28;20041;-64
2023/11/30 11:28:06;;;;;;;17.25;9.15;;;;;;;8.57;67.41;98767.47;10372917;28;20025;-64
2023/11/30 11:33:07;;;;;;;19.27;9.20;;;;;;;8.24;67.93;98775.38;10372069;28;20034;-65
2023/11/30 11:38:10;;;;;;;15.02;8.50;;;;;;;8.61;67.07;98762.50;10386102;28;20061;-65
2023/11/30 11:43:11;;;;;;;16.58;9.57;;;;;;;8.52;67.18;98781.44;10369311;28;20053;-64
2023/11/30 11:48:12;;;;;;;18.58;9.85;;;;;;;8.67;66.53;98767.09;10378092;28;20106;-64
2023/11/30 11:53:14;;;;;;;19.75;10.57;;;;;;;8.74;66.67;98767.91;10373872;28;20030;-64
2023/11/30 11:58:15;;;;;;;19.42;10.27;;;;;;;8.64;66.42;98770.16;10368634;28;20042;-64
2023/11/30 12:03:17;;;;;;;30.60;13.73;;;;;;;8.88;66.42;98768.75;10376936;28;20057;-65
2023/11/30 12:08:32;;;;;;;20.20;8.73;;;;;;;8.80;66.24;98761.72;10371732;28;20053;-65
2023/11/30 12:13:37;;;;;;;20.30;10.05;;;;;;;8.77;65.89;98756.81;10371358;28;20400;-64
2023/11/30 12:18:39;;;;;;;17.20;9.30;;;;;;;8.70;66.12;98751.41;10372183;28;20039;-64
2023/11/30 12:23:40;;;;;;;17.13;9.73;;;;;;;8.66;66.21;98736.78;10367864;28;20023;-64
2023/11/30 12:28:41;;;;;;;14.40;8.57;;;;;;;8.81;65.65;98731.25;10369315;28;20037;-64
2023/11/30 12:33:43;;;;;;;14.38;8.27;;;;;;;8.31;66.46;98738.72;10372737;28;20073;-64
2023/11/30 12:38:44;;;;;;;17.60;9.32;;;;;;;8.36;65.88;98722.88;10360675;28;20101;-63
2023/11/30 12:43:47;;;;;;;17.63;9.35;;;;;;;8.41;65.79;98717.78;10365669;28;20134;-66
2023/11/30 12:48:49;;;;;;;16.70;9.50;;;;;;;8.37;65.70;98713.00;10322753;28;20482;-66
2023/11/30 12:53:52;;;;;;;15.70;7.65;;;;;;;8.31;65.46;98717.31;10321421;28;20050;-65
2023/11/30 12:58:53;;;;;;;18.40;8.95;;;;;;;8.05;66.08;98724.22;10323067;28;20057;-65
2023/11/30 13:03:54;;;;;;;18.52;10.95;;;;;;;7.87;66.06;98721.28;10330420;28;20058;-65
2023/11/30 13:08:56;;;;;;;18.80;9.48;;;;;;;7.73;66.34;98718.53;10333819;28;20050;-65
2023/11/30 13:14:01;;;;;;;18.17;9.93;;;;;;;7.68;66.45;98709.44;10332835;28;20532;-65
2023/11/30 13:19:03;;;;;;;16.75;8.90;;;;;;;7.51;66.43;98707.09;10325194;28;20409;-66
2023/11/30 13:24:05;;;;;;;18.20;9.00;;;;;;;7.43;66.58;98709.13;10333513;28;20070;-65
2023/11/30 13:29:07;;;;;;;20.17;9.85;;;;;;;7.48;66.04;98698.63;10325963;28;20078;-65
2023/11/30 13:34:08;;;;;;;19.75;9.43;;;;;;;7.47;66.42;98691.66;10325285;28;20051;-65
2023/11/30 13:39:10;;;;;;;21.85;10.18;;;;;;;7.56;65.86;98693.13;10323137;28;20050;-65
2023/11/30 13:44:13;;;;;;;15.75;9.57;;;;;;;7.56;66.62;98693.13;10320372;28;20046;-65
2023/11/30 13:49:15;;;;;;;20.05;10.10;;;;;;;7.38;66.23;98700.84;10324787;28;20132;-65
2023/11/30 13:54:16;;;;;;;23.17;11.32;;;;;;;7.32;67.09;98703.25;10342738;28;20070;-64
2023/11/30 13:59:19;;;;;;;18.73;9.38;;;;;;;7.26;67.11;98705.91;10361065;28;20052;-63
2023/11/30 14:04:20;;;;;;;20.00;10.57;;;;;;;7.21;66.60;98703.81;10350821;28;20056;-63
2023/11/30 14:09:25;;;;;;;19.70;10.95;;;;;;;7.34;66.75;98703.91;10364658;28;20042;-62
2023/11/30 14:14:27;;;;;;;21.08;10.52;;;;;;;7.41;66.36;98700.47;10356421;28;20050;-62
2023/11/30 14:19:29;;;;;;;16.88;9.05;;;;;;;7.55;66.11;98697.66;10357435;28;20111;-63
2023/11/30 14:24:30;;;;;;;16.83;8.68;;;;;;;7.57;66.55;98710.84;10363494;28;20048;-62
2023/11/30 14:29:31;;;;;;;18.92;10.10;;;;;;;7.49;66.37;98698.44;10358448;28;20056;-62
2023/11/30 14:34:33;;;;;;;16.33;8.57;;;;;;;7.40;67.21;98710.31;10349162;28;20123;-64
2023/11/30 14:39:34;;;;;;;20.80;9.85;;;;;;;7.35;67.23;98720.78;10353042;28;20038;-62
2023/11/30 14:44:36;;;;;;;19.85;9.63;;;;;;;7.34;67.28;98717.25;10338779;28;20148;-62
2023/11/30 14:49:38;;;;;;;20.38;10.50;;;;;;;7.26;66.74;98730.78;10349115;28;20034;-63
2023/11/30 14:54:39;;;;;;;17.25;9.20;;;;;;;7.10;67.61;98712.38;10345278;28;20038;-61
2023/11/30 14:59:41;;;;;;;20.60;10.95;;;;;;;7.07;67.29;98718.09;10353257;28;20134;-63
2023/11/30 15:04:42;;;;;;;17.63;9.30;;;;;;;6.97;67.47;98725.63;10345255;28;20042;-69
2023/11/30 15:09:44;;;;;;;19.77;10.18;;;;;;;6.72;67.33;98732.19;10322597;28;20056;-69
2023/11/30 15:14:45;;;;;;;20.38;9.70;;;;;;;6.58;68.44;98750.97;10322605;28;20125;-69
2023/11/30 15:19:47;;;;;;;21.48;10.70;;;;;;;6.46;67.94;98759.47;10319884;28;20034;-69
2023/11/30 15:24:48;;;;;;;20.13;10.32;;;;;;;6.29;68.49;98756.19;10322555;28;20049;-68
2023/11/30 15:29:50;;;;;;;19.15;9.88;;;;;;;6.24;68.20;98749.75;10329679;28;20144;-66
2023/11/30 15:34:51;;;;;;;19.67;10.43;;;;;;;6.08;68.36;98758.78;10317373;28;20046;-68
2023/11/30 15:39:54;;;;;;;23.20;10.75;;;;;;;5.96;67.79;98742.44;10319723;28;20046;-69
2023/11/30 15:44:55;;;;;;;24.08;11.80;;;;;;;5.89;68.09;98749.50;10322912;28;20051;-69
2023/11/30 15:49:57;;;;;;;21.58;12.45;;;;;;;5.80;68.14;98750.63;10324538;28;20145;-68
2023/11/30 15:54:58;;;;;;;21.63;11.00;;;;;;;5.64;68.06;98752.44;10327553;28;20045;-69
2023/11/30 16:00:00;;;;;;;34.30;11.98;;;;;;;5.54;68.24;98744.72;10320266;28;20301;-60
2023/11/30 16:05:05;;;;;;;26.20;11.75;;;;;;;5.35;68.22;98743.44;10320510;28;20065;-61
2023/11/30 16:10:07;;;;;;;26.13;11.32;;;;;;;5.18;69.63;98749.13;10320998;28;20046;-61
2023/11/30 16:15:10;;;;;;;27.42;13.32;;;;;;;5.09;68.76;98756.34;10322048;28;20047;-59
2023/11/30 16:20:12;;;;;;;25.25;11.95;;;;;;;5.03;69.32;98767.72;10300353;28;20050;-60
2023/11/30 16:25:13;;;;;;;30.67;12.68;;;;;;;5.05;69.06;98776.34;10319503;28;20128;-60
2023/11/30 16:30:15;;;;;;;26.52;10.75;;;;;;;4.97;69.06;98767.41;10321836;28;20112;-60
2023/11/30 16:35:16;;;;;;;29.67;11.55;;;;;;;4.88;70.06;98765.03;10314435;28;20076;-60
2023/11/30 16:40:18;;;;;;;27.42;11.63;;;;;;;4.90;69.70;98763.00;10321691;28;20469;-61
2023/11/30 16:45:19;;;;;;;28.05;11.90;;;;;;;4.93;69.50;98767.97;10316326;28;20054;-60
2023/11/30 16:50:21;;;;;;;27.92;11.93;;;;;;;4.92;69.27;98769.81;10323231;28;20108;-61
2023/11/30 16:55:22;;;;;;;31.92;12.68;;;;;;;4.97;69.48;98771.91;10320269;28;20054;-60
2023/11/30 17:00:24;;;;;;;27.38;11.57;;;;;;;4.98;69.00;98765.59;10313802;28;20046;-61
2023/11/30 17:05:25;;;;;;;28.17;12.30;;;;;;;4.95;68.92;98752.63;10311090;28;20042;-60
2023/11/30 17:10:27;;;;;;;32.25;12.45;;;;;;;4.87;69.35;98750.03;10322677;28;20100;-61
2023/11/30 17:15:28;;;;;;;32.72;14.65;;;;;;;4.82;70.05;98749.72;10318891;28;20061;-60
2023/11/30 17:20:30;;;;;;;29.17;12.77;;;;;;;4.77;69.88;98751.09;10320634;28;20079;-60
2023/11/30 17:25:31;;;;;;;31.25;13.63;;;;;;;4.65;70.30;98767.69;10316429;28;20073;-60
2023/11/30 17:30:33;;;;;;;29.67;13.75;;;;;;;4.65;69.76;98765.00;10323638;28;20046;-60
2023/11/30 17:35:35;;;;;;;28.10;12.80;;;;;;;4.63;69.92;98757.19;10323143;28;20062;-60
2023/11/30 17:40:37;;;;;;;32.88;13.30;;;;;;;4.57;70.08;98758.72;10318566;28;20160;-60
2023/11/30 17:45:38;;;;;;;32.63;12.90;;;;;;;4.47;70.13;98763.47;10319686;28;20113;-61
2023/11/30 17:50:40;;;;;;;42.83;18.17;;;;;;;4.44;70.02;98771.78;10319820;28;20050;-60
2023/11/30 17:55:41;;;;;;;37.40;13.88;;;;;;;4.45;69.95;98783.28;10323642;28;20050;-60
2023/11/30 18:00:42;;;;;;;33.47;12.63;;;;;;;4.49;70.28;98785.41;10324529;28;20054;-61
2023/11/30 18:05:44;;;;;;;34.92;13.93;;;;;;;4.45;70.61;98783.28;10320943;28;20077;-61
2023/11/30 18:10:45;;;;;;;29.30;12.23;;;;;;;4.35;70.40;98796.78;10322999;28;20390;-61
2023/11/30 18:15:51;;;;;;;37.28;13.20;;;;;;;4.33;71.12;98798.81;10325730;28;20034;-61
2023/11/30 18:20:52;;;;;;;29.23;11.80;;;;;;;4.40;70.60;98807.72;10323182;28;20133;-61
2023/11/30 18:25:54;;;;;;;31.75;12.68;;;;;;;4.48;70.57;98798.88;10328839;28;20042;-73
2023/11/30 18:30:56;;;;;;;29.00;11.25;;;;;;;4.53;70.79;98789.38;10359339;28;20118;-73
2023/11/30 18:36:12;;;;;;;31.58;11.48;;;;;;;4.61;70.59;98795.66;10323300;28;20125;-60
2023/11/30 18:41:13;;;;;;;28.30;11.98;;;;;;;4.61;70.94;98782.34;10324996;28;20053;-61
2023/11/30 18:46:15;;;;;;;30.67;11.60;;;;;;;4.55;70.80;98789.19;10326768;28;20052;-59
2023/11/30 18:51:16;;;;;;;27.50;11.43;;;;;;;4.61;70.85;98793.00;10325303;28;20054;-59
2023/11/30 18:56:18;;;;;;;30.23;11.00;;;;;;;4.62;70.94;98808.78;10324998;28;20054;-60
2023/11/30 19:01:20;;;;;;;31.10;11.63;;;;;;;4.71;71.02;98810.38;10319931;28;20055;-60
2023/11/30 19:06:22;;;;;;;27.52;10.52;;;;;;;4.78;70.79;98813.16;10317184;28;20086;-59
2023/11/30 19:11:25;;;;;;;30.08;11.88;;;;;;;4.88;70.69;98826.25;10320859;28;20057;-60
2023/11/30 19:16:26;;;;;;;29.55;13.13;;;;;;;4.93;70.05;98819.38;10317776;28;20046;-60
2023/11/30 19:21:28;;;;;;;30.20;12.35;;;;;;;4.95;70.73;98806.69;10315923;28;20042;-60
2023/11/30 19:26:29;;;;;;;31.52;10.18;;;;;;;4.99;70.15;98823.16;10321581;28;20141;-59
2023/11/30 19:31:30;;;;;;;34.60;12.88;;;;;;;5.01;70.62;98820.31;10325346;28;20597;-60
2023/11/30 19:36:32;;;;;;;31.08;12.20;;;;;;;5.00;70.16;98810.69;10323797;28;20058;-60
2023/11/30 19:41:33;;;;;;;28.85;11.18;;;;;;;5.00;70.88;98800.03;10318494;28;20050;-59
2023/11/30 19:46:36;;;;;;;29.77;10.45;;;;;;;4.99;70.36;98809.84;10317685;28;20050;-58
2023/11/30 19:51:38;;;;;;;29.75;11.57;;;;;;;4.99;70.11;98807.19;10316652;28;20113;-61
2023/11/30 19:56:40;;;;;;;34.58;13.25;;;;;;;4.98;70.85;98813.53;10317013;28;20058;-61
2023/11/30 20:01:41;;;;;;;36.35;11.95;;;;;;;5.00;70.80;98819.50;10323225;28;20069;-61
2023/11/30 20:06:43;;;;;;;28.67;10.85;;;;;;;5.03;70.69;98819.13;10334719;28;20043;-60
2023/11/30 20:11:44;;;;;;;26.77;9.68;;;;;;;5.08;70.37;98818.63;10318008;28;20051;-60
2023/11/30 20:16:46;;;;;;;35.58;13.00;;;;;;;5.11;69.99;98815.56;10328137;28;20054;-61
2023/11/30 20:21:48;;;;;;;30.65;12.32;;;;;;;5.07;70.52;98814.28;10324108;28;20050;-60
2023/11/30 20:26:49;;;;;;;28.77;11.07;;;;;;;5.10;70.55;98816.59;10316394;28;20085;-61
2023/11/30 20:31:50;;;;;;;29.42;11.80;;;;;;;5.10;70.67;98809.44;10320317;28;20050;-61
2023/11/30 20:36:52;;;;;;;28.20;11.77;;;;;;;5.12;70.64;98822.56;10317777;28;20056;-60
2023/11/30 20:41:54;;;;;;;30.13;11.63;;;;;;;5.18;71.08;98832.50;10319304;28;20077;-60
2023/11/30 20:46:56;;;;;;;31.05;11.30;;;;;;;5.24;70.33;98841.63;10322729;28;20508;-60
2023/11/30 20:51:57;;;;;;;33.97;12.45;;;;;;;5.29;70.37;98832.09;10323223;28;20092;-61
2023/11/30 20:56:59;;;;;;;26.65;11.30;;;;;;;5.29;70.09;98829.44;10328126;28;20049;-62
2023/11/30 21:02:00;;;;;;;31.45;12.68;;;;;;;5.30;70.58;98823.06;10321970;28;20043;-60
2023/11/30 21:07:02;;;;;;;30.30;11.48;;;;;;;5.35;69.98;98838.50;10322271;28;20069;-61
2023/11/30 21:12:03;;;;;;;31.75;11.20;;;;;;;5.41;70.71;98847.63;10319590;28;20047;-61
2023/11/30 21:17:05;;;;;;;30.65;11.05;;;;;;;5.40;69.98;98854.81;10320932;28;20050;-61
2023/11/30 21:22:06;;;;;;;33.35;11.65;;;;;;;5.34;70.40;98853.69;10321331;28;20081;-61
2023/11/30 21:27:08;;;;;;;29.90;11.68;;;;;;;5.31;70.19;98851.38;10330298;28;20047;-60
2023/11/30 21:32:09;;;;;;;31.67;12.00;;;;;;;5.32;70.65;98853.03;10334807;28;20137;-61
2023/11/30 21:37:11;;;;;;;35.72;11.43;;;;;;;5.32;70.36;98853.03;10346318;28;20053;-61
2023/11/30 21:42:12;;;;;;;33.15;12.15;;;;;;;5.33;70.77;98854.69;10334168;28;20497;-61
2023/11/30 21:47:16;;;;;;;33.92;12.25;;;;;;;5.30;70.42;98860.38;10333790;28;20047;-61
2023/11/30 21:52:17;;;;;;;28.88;11.65;;;;;;;5.36;70.14;98858.84;10333882;28;20063;-62
2023/11/30 21:57:19;;;;;;;21.92;9.77;;;;;;;5.31;70.41;98854.06;10338093;28;20056;-61
2023/11/30 22:02:21;;;;;;;22.52;9.50;;;;;;;5.26;70.68;98839.59;10324584;28;20821;-61
2023/11/30 22:07:23;;;;;;;23.80;9.50;;;;;;;5.25;70.87;98848.59;10327547;28;20050;-61
2023/11/30 22:12:24;;;;;;;24.05;9.88;;;;;;;5.26;70.85;98835.09;10324525;28;20046;-61
2023/11/30 22:17:26;;;;;;;24.95;9.88;;;;;;;5.24;70.44;98842.44;10325957;28;20050;-60
2023/11/30 22:22:28;;;;;;;20.67;9.13;;;;;;;5.24;70.81;98846.94;10327405;28;20066;-60
2023/11/30 22:27:29;;;;;;;21.30;8.77;;;;;;;5.30;71.01;98862.22;10328258;28;20049;-61
2023/11/30 22:32:30;;;;;;;19.52;8.80;;;;;;;5.24;70.98;98868.25;10325859;28;20517;-59
2023/11/30 22:37:32;;;;;;;20.05;8.88;;;;;;;5.22;70.59;98870.28;10310171;28;20153;-60
2023/11/30 22:42:33;;;;;;;21.85;9.35;;;;;;;5.13;70.77;98885.47;10317140;28;20042;-59
2023/11/30 22:47:37;;;;;;;24.00;9.80;;;;;;;5.04;70.49;98878.56;10326477;28;20070;-59
2023/11/30 22:52:39;;;;;;;25.17;9.63;;;;;;;4.92;71.00;98864.81;10324333;28;20034;-59
2023/11/30 22:57:40;;;;;;;21.10;9.32;;;;;;;4.90;70.57;98875.66;10310155;28;20393;-61
2023/11/30 23:02:42;;;;;;;20.80;9.27;;;;;;;4.90;71.04;98864.19;10323510;28;20133;-60
2023/11/30 23:07:44;;;;;;;20.77;8.25;;;;;;;4.91;71.13;98871.97;10322040;28;20049;-59
2023/11/30 23:12:45;;;;;;;22.88;9.23;;;;;;;4.87;70.85;98867.19;10315516;28;20045;-60
2023/11/30 23:17:47;;;;;;;24.70;10.60;;;;;;;4.77;71.43;98876.22;10313730;28;20081;-59